sensor_id;sensor_type;location;lat;lon;timestamp;P1;durP1;ratioP1;P2;durP2;ratioP2
19257;SDS011;9763;48.780;9.212;2023-03-19T00:02:20;4.00;;;1.83;;
19257;SDS011;9763;48.780;9.212;2023-03-19T00:05:49;2.40;;;1.83;;
19257;SDS011;9763;48.780;9.212;2023-03-19T00:09:14;3.67;;;2.30;;
19257;SDS011;9763;48.780;9.212;2023-03-19T00:12:39;2.50;;;2.30;;
19257;SDS011;9763;48.780;9.212;2023-03-19T00:16:02;2.83;;;2.00;;
19257;SDS011;9763;48.780;9.212;2023-03-19T00:19:29;4.90;;;2.93;;
19257;SDS011;9763;48.780;9.212;2023-03-19T00:22:52;2.37;;;2.10;;
19257;SDS011;9763;48.780;9.212;2023-03-19T00:26:16;3.77;;;2.50;;
19257;SDS011;9763;48.780;9.212;2023-03-19T00:29:40;2.87;;;2.50;;
19257;SDS011;9763;48.780;9.212;2023-03-19T00:33:04;2.50;;;2.30;;
19257;SDS011;9763;48.780;9.212;2023-03-19T00:36:29;3.10;;;2.30;;
19257;SDS011;9763;48.780;9.212;2023-03-19T00:39:52;2.50;;;1.97;;
19257;SDS011;9763;48.780;9.212;2023-03-19T00:43:16;4.70;;;2.50;;
19257;SDS011;9763;48.780;9.212;2023-03-19T00:46:40;2.23;;;1.90;;
19257;SDS011;9763;48.780;9.212;2023-03-19T00:50:04;2.43;;;1.73;;
19257;SDS011;9763;48.780;9.212;2023-03-19T00:53:30;2.63;;;2.10;;
19257;SDS011;9763;48.780;9.212;2023-03-19T00:56:53;3.13;;;2.17;;
19257;SDS011;9763;48.780;9.212;2023-03-19T01:00:17;2.20;;;2.00;;
19257;SDS011;9763;48.780;9.212;2023-03-19T01:03:42;2.30;;;1.97;;
19257;SDS011;9763;48.780;9.212;2023-03-19T01:07:07;2.67;;;1.70;;
19257;SDS011;9763;48.780;9.212;2023-03-19T01:10:33;1.77;;;1.63;;
19257;SDS011;9763;48.780;9.212;2023-03-19T01:13:58;2.17;;;1.73;;
19257;SDS011;9763;48.780;9.212;2023-03-19T01:17:23;2.70;;;1.90;;
19257;SDS011;9763;48.780;9.212;2023-03-19T01:20:47;3.27;;;1.77;;
19257;SDS011;9763;48.780;9.212;2023-03-19T01:24:11;3.20;;;1.70;;
19257;SDS011;9763;48.780;9.212;2023-03-19T01:27:37;2.57;;;1.70;;
19257;SDS011;9763;48.780;9.212;2023-03-19T01:31:04;1.93;;;1.73;;
19257;SDS011;9763;48.780;9.212;2023-03-19T01:34:49;2.07;;;1.53;;
19257;SDS011;9763;48.780;9.212;2023-03-19T01:38:14;2.33;;;1.83;;
19257;SDS011;9763;48.780;9.212;2023-03-19T01:41:39;2.40;;;1.83;;
19257;SDS011;9763;48.780;9.212;2023-03-19T01:45:31;1.60;;;1.20;;
19257;SDS011;9763;48.780;9.212;2023-03-19T01:49:14;1.53;;;1.33;;
19257;SDS011;9763;48.780;9.212;2023-03-19T01:52:47;1.90;;;1.70;;
19257;SDS011;9763;48.780;9.212;2023-03-19T01:56:18;2.10;;;1.60;;
19257;SDS011;9763;48.780;9.212;2023-03-19T01:59:57;1.90;;;1.30;;
19257;SDS011;9763;48.780;9.212;2023-03-19T02:03:40;2.50;;;1.40;;
19257;SDS011;9763;48.780;9.212;2023-03-19T02:07:09;2.47;;;1.47;;
19257;SDS011;9763;48.780;9.212;2023-03-19T02:10:35;2.13;;;1.50;;
19257;SDS011;9763;48.780;9.212;2023-03-19T02:13:59;1.93;;;1.40;;
19257;SDS011;9763;48.780;9.212;2023-03-19T02:17:23;1.70;;;1.13;;
19257;SDS011;9763;48.780;9.212;2023-03-19T02:20:52;1.30;;;1.00;;
19257;SDS011;9763;48.780;9.212;2023-03-19T02:24:24;1.50;;;1.13;;
19257;SDS011;9763;48.780;9.212;2023-03-19T02:28:00;1.83;;;1.13;;
19257;SDS011;9763;48.780;9.212;2023-03-19T02:31:24;1.80;;;1.40;;
19257;SDS011;9763;48.780;9.212;2023-03-19T02:34:48;1.93;;;1.70;;
19257;SDS011;9763;48.780;9.212;2023-03-19T02:38:12;2.67;;;1.43;;
19257;SDS011;9763;48.780;9.212;2023-03-19T02:41:37;2.10;;;1.50;;
19257;SDS011;9763;48.780;9.212;2023-03-19T02:45:05;2.43;;;1.33;;
19257;SDS011;9763;48.780;9.212;2023-03-19T02:48:30;1.27;;;0.93;;
19257;SDS011;9763;48.780;9.212;2023-03-19T02:51:54;1.50;;;1.10;;
19257;SDS011;9763;48.780;9.212;2023-03-19T02:55:17;1.27;;;0.87;;
19257;SDS011;9763;48.780;9.212;2023-03-19T02:58:42;1.20;;;0.90;;
19257;SDS011;9763;48.780;9.212;2023-03-19T03:02:08;1.90;;;1.03;;
19257;SDS011;9763;48.780;9.212;2023-03-19T03:05:32;1.50;;;0.90;;
19257;SDS011;9763;48.780;9.212;2023-03-19T03:08:56;1.20;;;0.80;;
19257;SDS011;9763;48.780;9.212;2023-03-19T03:12:19;1.40;;;0.97;;
19257;SDS011;9763;48.780;9.212;2023-03-19T03:15:43;1.93;;;1.37;;
19257;SDS011;9763;48.780;9.212;2023-03-19T03:19:08;1.30;;;1.00;;
19257;SDS011;9763;48.780;9.212;2023-03-19T03:22:32;1.30;;;0.90;;
19257;SDS011;9763;48.780;9.212;2023-03-19T03:25:55;1.73;;;1.13;;
19257;SDS011;9763;48.780;9.212;2023-03-19T03:29:20;2.70;;;1.20;;
19257;SDS011;9763;48.780;9.212;2023-03-19T03:32:43;2.23;;;1.10;;
19257;SDS011;9763;48.780;9.212;2023-03-19T03:36:08;1.60;;;1.20;;
19257;SDS011;9763;48.780;9.212;2023-03-19T03:39:33;1.30;;;0.90;;
19257;SDS011;9763;48.780;9.212;2023-03-19T03:42:56;1.30;;;1.00;;
19257;SDS011;9763;48.780;9.212;2023-03-19T03:46:20;1.73;;;1.37;;
19257;SDS011;9763;48.780;9.212;2023-03-19T03:49:45;1.50;;;1.10;;
19257;SDS011;9763;48.780;9.212;2023-03-19T03:53:10;1.70;;;1.07;;
19257;SDS011;9763;48.780;9.212;2023-03-19T03:56:35;1.30;;;1.00;;
19257;SDS011;9763;48.780;9.212;2023-03-19T03:59:58;1.70;;;1.20;;
19257;SDS011;9763;48.780;9.212;2023-03-19T04:03:23;2.20;;;1.27;;
19257;SDS011;9763;48.780;9.212;2023-03-19T04:06:47;1.47;;;1.20;;
19257;SDS011;9763;48.780;9.212;2023-03-19T04:10:29;1.73;;;1.10;;
19257;SDS011;9763;48.780;9.212;2023-03-19T04:13:53;1.50;;;1.00;;
19257;SDS011;9763;48.780;9.212;2023-03-19T04:17:18;2.10;;;1.70;;
19257;SDS011;9763;48.780;9.212;2023-03-19T04:20:42;1.80;;;1.27;;
19257;SDS011;9763;48.780;9.212;2023-03-19T04:24:05;1.50;;;1.20;;
19257;SDS011;9763;48.780;9.212;2023-03-19T04:27:31;1.40;;;1.20;;
19257;SDS011;9763;48.780;9.212;2023-03-19T04:30:59;1.30;;;1.00;;
19257;SDS011;9763;48.780;9.212;2023-03-19T04:34:27;1.83;;;1.47;;
19257;SDS011;9763;48.780;9.212;2023-03-19T04:37:51;1.90;;;1.37;;
19257;SDS011;9763;48.780;9.212;2023-03-19T04:41:15;2.13;;;1.33;;
19257;SDS011;9763;48.780;9.212;2023-03-19T04:44:54;1.50;;;1.33;;
19257;SDS011;9763;48.780;9.212;2023-03-19T04:48:17;1.47;;;1.20;;
19257;SDS011;9763;48.780;9.212;2023-03-19T04:51:43;1.70;;;1.27;;
19257;SDS011;9763;48.780;9.212;2023-03-19T04:55:07;1.80;;;1.20;;
19257;SDS011;9763;48.780;9.212;2023-03-19T04:58:42;2.33;;;1.60;;
19257;SDS011;9763;48.780;9.212;2023-03-19T05:02:08;1.40;;;1.20;;
19257;SDS011;9763;48.780;9.212;2023-03-19T05:05:33;1.80;;;1.20;;
19257;SDS011;9763;48.780;9.212;2023-03-19T05:09:00;1.50;;;1.20;;
19257;SDS011;9763;48.780;9.212;2023-03-19T05:12:25;1.50;;;1.20;;
19257;SDS011;9763;48.780;9.212;2023-03-19T05:15:51;1.30;;;1.00;;
19257;SDS011;9763;48.780;9.212;2023-03-19T05:19:18;1.73;;;1.17;;
19257;SDS011;9763;48.780;9.212;2023-03-19T05:22:43;1.60;;;1.30;;
19257;SDS011;9763;48.780;9.212;2023-03-19T05:26:10;1.30;;;1.10;;
19257;SDS011;9763;48.780;9.212;2023-03-19T05:29:56;2.23;;;1.40;;
19257;SDS011;9763;48.780;9.212;2023-03-19T05:33:37;1.43;;;1.23;;
19257;SDS011;9763;48.780;9.212;2023-03-19T05:37:02;1.70;;;1.40;;
19257;SDS011;9763;48.780;9.212;2023-03-19T05:40:27;2.23;;;1.40;;
19257;SDS011;9763;48.780;9.212;2023-03-19T05:43:53;2.47;;;1.30;;
19257;SDS011;9763;48.780;9.212;2023-03-19T05:47:33;1.60;;;1.20;;
19257;SDS011;9763;48.780;9.212;2023-03-19T05:50:57;1.67;;;1.07;;
19257;SDS011;9763;48.780;9.212;2023-03-19T05:54:27;1.30;;;1.13;;
19257;SDS011;9763;48.780;9.212;2023-03-19T05:57:56;1.60;;;1.27;;
19257;SDS011;9763;48.780;9.212;2023-03-19T06:01:20;1.80;;;1.30;;
19257;SDS011;9763;48.780;9.212;2023-03-19T06:04:45;1.50;;;1.23;;
19257;SDS011;9763;48.780;9.212;2023-03-19T06:08:11;2.93;;;1.13;;
19257;SDS011;9763;48.780;9.212;2023-03-19T06:11:59;1.97;;;1.10;;
19257;SDS011;9763;48.780;9.212;2023-03-19T06:15:41;1.30;;;1.03;;
19257;SDS011;9763;48.780;9.212;2023-03-19T06:19:25;1.57;;;1.30;;
19257;SDS011;9763;48.780;9.212;2023-03-19T06:22:49;4.93;;;1.80;;
19257;SDS011;9763;48.780;9.212;2023-03-19T06:26:15;2.47;;;1.43;;
19257;SDS011;9763;48.780;9.212;2023-03-19T06:29:46;1.40;;;1.23;;
19257;SDS011;9763;48.780;9.212;2023-03-19T06:33:16;1.50;;;1.27;;
19257;SDS011;9763;48.780;9.212;2023-03-19T06:36:39;1.43;;;1.10;;
19257;SDS011;9763;48.780;9.212;2023-03-19T06:40:05;2.20;;;1.30;;
19257;SDS011;9763;48.780;9.212;2023-03-19T06:43:30;2.60;;;1.40;;
19257;SDS011;9763;48.780;9.212;2023-03-19T06:46:58;1.60;;;1.30;;
19257;SDS011;9763;48.780;9.212;2023-03-19T06:50:22;1.90;;;1.60;;
19257;SDS011;9763;48.780;9.212;2023-03-19T06:53:47;1.87;;;1.50;;
19257;SDS011;9763;48.780;9.212;2023-03-19T06:57:10;1.60;;;1.30;;
19257;SDS011;9763;48.780;9.212;2023-03-19T07:00:34;1.43;;;1.10;;
19257;SDS011;9763;48.780;9.212;2023-03-19T07:03:59;2.00;;;1.50;;
19257;SDS011;9763;48.780;9.212;2023-03-19T07:07:22;1.40;;;1.20;;
19257;SDS011;9763;48.780;9.212;2023-03-19T07:10:46;1.60;;;1.30;;
19257;SDS011;9763;48.780;9.212;2023-03-19T07:14:10;3.00;;;1.20;;
19257;SDS011;9763;48.780;9.212;2023-03-19T07:17:33;1.50;;;1.00;;
19257;SDS011;9763;48.780;9.212;2023-03-19T07:20:58;1.37;;;1.10;;
19257;SDS011;9763;48.780;9.212;2023-03-19T07:24:22;1.50;;;1.30;;
19257;SDS011;9763;48.780;9.212;2023-03-19T07:27:45;1.87;;;1.50;;
19257;SDS011;9763;48.780;9.212;2023-03-19T07:31:09;1.70;;;1.33;;
19257;SDS011;9763;48.780;9.212;2023-03-19T07:34:32;1.63;;;1.50;;
19257;SDS011;9763;48.780;9.212;2023-03-19T07:37:57;1.67;;;1.33;;
19257;SDS011;9763;48.780;9.212;2023-03-19T07:41:21;1.47;;;1.27;;
19257;SDS011;9763;48.780;9.212;2023-03-19T07:44:45;2.10;;;1.90;;
19257;SDS011;9763;48.780;9.212;2023-03-19T07:48:08;2.23;;;1.50;;
19257;SDS011;9763;48.780;9.212;2023-03-19T07:51:33;2.80;;;1.60;;
19257;SDS011;9763;48.780;9.212;2023-03-19T07:54:58;2.53;;;1.57;;
19257;SDS011;9763;48.780;9.212;2023-03-19T07:58:22;3.27;;;1.60;;
19257;SDS011;9763;48.780;9.212;2023-03-19T08:01:46;1.90;;;1.57;;
19257;SDS011;9763;48.780;9.212;2023-03-19T08:05:10;2.27;;;1.73;;
19257;SDS011;9763;48.780;9.212;2023-03-19T08:08:34;2.00;;;1.43;;
19257;SDS011;9763;48.780;9.212;2023-03-19T08:11:59;1.67;;;1.40;;
19257;SDS011;9763;48.780;9.212;2023-03-19T08:15:22;1.73;;;1.60;;
19257;SDS011;9763;48.780;9.212;2023-03-19T08:18:46;2.63;;;1.53;;
19257;SDS011;9763;48.780;9.212;2023-03-19T08:22:11;1.60;;;1.40;;
19257;SDS011;9763;48.780;9.212;2023-03-19T08:25:35;2.13;;;1.37;;
19257;SDS011;9763;48.780;9.212;2023-03-19T08:29:00;1.57;;;1.30;;
19257;SDS011;9763;48.780;9.212;2023-03-19T08:32:24;1.50;;;1.20;;
19257;SDS011;9763;48.780;9.212;2023-03-19T08:35:48;1.80;;;1.40;;
19257;SDS011;9763;48.780;9.212;2023-03-19T08:39:12;1.80;;;1.30;;
19257;SDS011;9763;48.780;9.212;2023-03-19T08:42:36;1.80;;;1.67;;
19257;SDS011;9763;48.780;9.212;2023-03-19T08:46:07;1.70;;;1.40;;
19257;SDS011;9763;48.780;9.212;2023-03-19T08:49:30;3.00;;;1.40;;
19257;SDS011;9763;48.780;9.212;2023-03-19T08:52:54;1.77;;;1.10;;
19257;SDS011;9763;48.780;9.212;2023-03-19T08:56:18;2.30;;;1.37;;
19257;SDS011;9763;48.780;9.212;2023-03-19T08:59:42;2.10;;;1.60;;
19257;SDS011;9763;48.780;9.212;2023-03-19T09:03:07;1.37;;;1.17;;
19257;SDS011;9763;48.780;9.212;2023-03-19T09:06:31;1.80;;;1.30;;
19257;SDS011;9763;48.780;9.212;2023-03-19T09:09:54;1.40;;;1.17;;
19257;SDS011;9763;48.780;9.212;2023-03-19T09:13:17;1.70;;;1.30;;
19257;SDS011;9763;48.780;9.212;2023-03-19T09:16:41;1.60;;;1.10;;
19257;SDS011;9763;48.780;9.212;2023-03-19T09:20:07;1.37;;;1.10;;
19257;SDS011;9763;48.780;9.212;2023-03-19T09:23:32;3.70;;;1.30;;
19257;SDS011;9763;48.780;9.212;2023-03-19T09:26:56;1.67;;;1.10;;
19257;SDS011;9763;48.780;9.212;2023-03-19T09:30:19;1.50;;;1.10;;
19257;SDS011;9763;48.780;9.212;2023-03-19T09:33:43;1.50;;;1.20;;
19257;SDS011;9763;48.780;9.212;2023-03-19T09:37:08;1.40;;;1.13;;
19257;SDS011;9763;48.780;9.212;2023-03-19T09:40:34;1.93;;;1.20;;
19257;SDS011;9763;48.780;9.212;2023-03-19T09:44:03;1.93;;;1.40;;
19257;SDS011;9763;48.780;9.212;2023-03-19T09:47:33;2.50;;;1.43;;
19257;SDS011;9763;48.780;9.212;2023-03-19T09:51:00;1.53;;;1.37;;
19257;SDS011;9763;48.780;9.212;2023-03-19T09:54:31;2.43;;;1.30;;
19257;SDS011;9763;48.780;9.212;2023-03-19T09:57:59;1.73;;;1.33;;
19257;SDS011;9763;48.780;9.212;2023-03-19T10:01:24;1.67;;;1.30;;
19257;SDS011;9763;48.780;9.212;2023-03-19T10:04:53;2.87;;;1.73;;
19257;SDS011;9763;48.780;9.212;2023-03-19T10:08:32;1.50;;;1.20;;
19257;SDS011;9763;48.780;9.212;2023-03-19T10:12:12;1.80;;;1.30;;
19257;SDS011;9763;48.780;9.212;2023-03-19T10:15:54;1.87;;;1.40;;
19257;SDS011;9763;48.780;9.212;2023-03-19T10:19:21;3.37;;;1.50;;
19257;SDS011;9763;48.780;9.212;2023-03-19T10:23:15;1.90;;;1.33;;
19257;SDS011;9763;48.780;9.212;2023-03-19T10:26:59;1.93;;;1.27;;
19257;SDS011;9763;48.780;9.212;2023-03-19T10:30:32;1.90;;;1.33;;
19257;SDS011;9763;48.780;9.212;2023-03-19T10:34:10;2.00;;;1.13;;
19257;SDS011;9763;48.780;9.212;2023-03-19T10:37:51;2.07;;;1.20;;
19257;SDS011;9763;48.780;9.212;2023-03-19T10:41:19;2.00;;;1.30;;
19257;SDS011;9763;48.780;9.212;2023-03-19T10:44:58;1.63;;;1.00;;
19257;SDS011;9763;48.780;9.212;2023-03-19T10:48:26;2.20;;;1.53;;
19257;SDS011;9763;48.780;9.212;2023-03-19T10:51:51;2.03;;;1.30;;
19257;SDS011;9763;48.780;9.212;2023-03-19T10:55:22;2.57;;;1.40;;
19257;SDS011;9763;48.780;9.212;2023-03-19T10:58:55;1.50;;;1.10;;
19257;SDS011;9763;48.780;9.212;2023-03-19T11:02:21;1.70;;;1.20;;
19257;SDS011;9763;48.780;9.212;2023-03-19T11:05:51;2.00;;;1.20;;
19257;SDS011;9763;48.780;9.212;2023-03-19T11:09:31;1.77;;;1.00;;
19257;SDS011;9763;48.780;9.212;2023-03-19T11:12:57;1.70;;;1.17;;
19257;SDS011;9763;48.780;9.212;2023-03-19T11:16:25;2.07;;;1.30;;
19257;SDS011;9763;48.780;9.212;2023-03-19T11:19:51;1.50;;;1.00;;
19257;SDS011;9763;48.780;9.212;2023-03-19T11:23:18;2.83;;;1.30;;
19257;SDS011;9763;48.780;9.212;2023-03-19T11:26:42;2.03;;;1.10;;
19257;SDS011;9763;48.780;9.212;2023-03-19T11:30:16;1.93;;;1.20;;
19257;SDS011;9763;48.780;9.212;2023-03-19T11:33:50;1.90;;;1.17;;
19257;SDS011;9763;48.780;9.212;2023-03-19T11:37:32;1.90;;;1.00;;
19257;SDS011;9763;48.780;9.212;2023-03-19T11:41:14;2.23;;;1.27;;
19257;SDS011;9763;48.780;9.212;2023-03-19T11:44:55;1.70;;;1.40;;
19257;SDS011;9763;48.780;9.212;2023-03-19T11:48:34;1.90;;;1.63;;
19257;SDS011;9763;48.780;9.212;2023-03-19T11:52:10;1.70;;;1.20;;
19257;SDS011;9763;48.780;9.212;2023-03-19T11:55:40;2.00;;;1.03;;
19257;SDS011;9763;48.780;9.212;2023-03-19T11:59:30;1.93;;;1.20;;
19257;SDS011;9763;48.780;9.212;2023-03-19T12:07:21;1.97;;;1.17;;
19257;SDS011;9763;48.780;9.212;2023-03-19T12:10:54;1.40;;;1.00;;
19257;SDS011;9763;48.780;9.212;2023-03-19T12:14:29;2.07;;;1.20;;
19257;SDS011;9763;48.780;9.212;2023-03-19T12:18:05;1.70;;;1.20;;
19257;SDS011;9763;48.780;9.212;2023-03-19T12:21:45;1.80;;;1.10;;
19257;SDS011;9763;48.780;9.212;2023-03-19T12:25:26;2.53;;;1.13;;
19257;SDS011;9763;48.780;9.212;2023-03-19T12:29:01;2.20;;;1.30;;
19257;SDS011;9763;48.780;9.212;2023-03-19T12:32:41;1.70;;;1.20;;
19257;SDS011;9763;48.780;9.212;2023-03-19T12:36:25;2.53;;;1.30;;
19257;SDS011;9763;48.780;9.212;2023-03-19T12:39:56;1.80;;;1.13;;
19257;SDS011;9763;48.780;9.212;2023-03-19T12:43:31;2.87;;;1.67;;
19257;SDS011;9763;48.780;9.212;2023-03-19T12:47:00;2.03;;;1.30;;
19257;SDS011;9763;48.780;9.212;2023-03-19T12:50:30;1.60;;;1.20;;
19257;SDS011;9763;48.780;9.212;2023-03-19T12:53:58;1.77;;;1.10;;
19257;SDS011;9763;48.780;9.212;2023-03-19T12:57:29;1.53;;;1.30;;
19257;SDS011;9763;48.780;9.212;2023-03-19T13:00:59;2.20;;;1.50;;
19257;SDS011;9763;48.780;9.212;2023-03-19T13:04:30;2.30;;;1.40;;
19257;SDS011;9763;48.780;9.212;2023-03-19T13:08:04;2.40;;;1.20;;
19257;SDS011;9763;48.780;9.212;2023-03-19T13:11:37;1.90;;;1.20;;
19257;SDS011;9763;48.780;9.212;2023-03-19T13:15:08;2.50;;;1.50;;
19257;SDS011;9763;48.780;9.212;2023-03-19T13:18:36;1.90;;;1.60;;
19257;SDS011;9763;48.780;9.212;2023-03-19T13:22:08;2.53;;;1.53;;
19257;SDS011;9763;48.780;9.212;2023-03-19T13:25:38;3.20;;;1.50;;
19257;SDS011;9763;48.780;9.212;2023-03-19T13:29:07;2.27;;;1.00;;
19257;SDS011;9763;48.780;9.212;2023-03-19T13:32:39;2.77;;;1.20;;
19257;SDS011;9763;48.780;9.212;2023-03-19T13:36:06;1.80;;;1.10;;
19257;SDS011;9763;48.780;9.212;2023-03-19T13:39:35;1.90;;;1.37;;
19257;SDS011;9763;48.780;9.212;2023-03-19T13:43:01;1.70;;;1.00;;
19257;SDS011;9763;48.780;9.212;2023-03-19T13:46:28;2.60;;;1.10;;
19257;SDS011;9763;48.780;9.212;2023-03-19T13:50:25;2.40;;;1.20;;
19257;SDS011;9763;48.780;9.212;2023-03-19T13:53:52;1.30;;;1.00;;
19257;SDS011;9763;48.780;9.212;2023-03-19T13:57:32;1.30;;;1.00;;
19257;SDS011;9763;48.780;9.212;2023-03-19T14:00:59;1.60;;;1.20;;
19257;SDS011;9763;48.780;9.212;2023-03-19T14:04:23;1.87;;;1.10;;
19257;SDS011;9763;48.780;9.212;2023-03-19T14:07:50;1.60;;;1.10;;
19257;SDS011;9763;48.780;9.212;2023-03-19T14:11:20;1.50;;;1.20;;
19257;SDS011;9763;48.780;9.212;2023-03-19T14:14:47;1.70;;;1.10;;
19257;SDS011;9763;48.780;9.212;2023-03-19T14:18:15;3.10;;;0.90;;
19257;SDS011;9763;48.780;9.212;2023-03-19T14:21:44;1.70;;;0.90;;
19257;SDS011;9763;48.780;9.212;2023-03-19T14:25:50;1.40;;;0.87;;
19257;SDS011;9763;48.780;9.212;2023-03-19T14:29:32;1.40;;;1.00;;
19257;SDS011;9763;48.780;9.212;2023-03-19T14:32:58;1.93;;;0.80;;
19257;SDS011;9763;48.780;9.212;2023-03-19T14:36:26;1.20;;;0.70;;
19257;SDS011;9763;48.780;9.212;2023-03-19T14:39:53;1.50;;;0.90;;
19257;SDS011;9763;48.780;9.212;2023-03-19T14:43:31;1.30;;;1.00;;
19257;SDS011;9763;48.780;9.212;2023-03-19T14:47:19;1.50;;;1.10;;
19257;SDS011;9763;48.780;9.212;2023-03-19T14:51:01;1.53;;;0.97;;
19257;SDS011;9763;48.780;9.212;2023-03-19T14:54:47;1.50;;;1.00;;
19257;SDS011;9763;48.780;9.212;2023-03-19T14:58:15;1.40;;;1.10;;
19257;SDS011;9763;48.780;9.212;2023-03-19T15:01:43;1.73;;;1.10;;
19257;SDS011;9763;48.780;9.212;2023-03-19T15:05:14;2.30;;;1.20;;
19257;SDS011;9763;48.780;9.212;2023-03-19T15:08:44;2.57;;;1.70;;
19257;SDS011;9763;48.780;9.212;2023-03-19T15:12:22;1.70;;;1.20;;
19257;SDS011;9763;48.780;9.212;2023-03-19T15:16:13;1.90;;;1.30;;
19257;SDS011;9763;48.780;9.212;2023-03-19T15:19:47;2.50;;;1.30;;
19257;SDS011;9763;48.780;9.212;2023-03-19T15:23:16;2.07;;;1.00;;
19257;SDS011;9763;48.780;9.212;2023-03-19T15:26:48;1.57;;;1.20;;
19257;SDS011;9763;48.780;9.212;2023-03-19T15:30:20;1.50;;;1.00;;
19257;SDS011;9763;48.780;9.212;2023-03-19T15:33:49;1.43;;;0.90;;
19257;SDS011;9763;48.780;9.212;2023-03-19T15:37:13;1.20;;;0.80;;
19257;SDS011;9763;48.780;9.212;2023-03-19T15:40:39;1.30;;;0.90;;
19257;SDS011;9763;48.780;9.212;2023-03-19T15:44:04;1.20;;;0.90;;
19257;SDS011;9763;48.780;9.212;2023-03-19T15:47:32;1.40;;;1.07;;
19257;SDS011;9763;48.780;9.212;2023-03-19T15:50:58;1.73;;;1.33;;
19257;SDS011;9763;48.780;9.212;2023-03-19T15:54:24;1.60;;;1.20;;
19257;SDS011;9763;48.780;9.212;2023-03-19T15:57:50;2.13;;;1.37;;
19257;SDS011;9763;48.780;9.212;2023-03-19T16:01:15;2.20;;;1.33;;
19257;SDS011;9763;48.780;9.212;2023-03-19T16:04:43;3.20;;;1.50;;
19257;SDS011;9763;48.780;9.212;2023-03-19T16:08:28;2.70;;;1.30;;
19257;SDS011;9763;48.780;9.212;2023-03-19T16:11:52;1.50;;;1.30;;
19257;SDS011;9763;48.780;9.212;2023-03-19T16:15:22;1.40;;;1.20;;
19257;SDS011;9763;48.780;9.212;2023-03-19T16:18:50;1.60;;;1.20;;
19257;SDS011;9763;48.780;9.212;2023-03-19T16:22:15;2.63;;;1.40;;
19257;SDS011;9763;48.780;9.212;2023-03-19T16:25:43;2.33;;;1.00;;
19257;SDS011;9763;48.780;9.212;2023-03-19T16:29:15;1.50;;;1.10;;
19257;SDS011;9763;48.780;9.212;2023-03-19T16:32:43;2.47;;;0.90;;
19257;SDS011;9763;48.780;9.212;2023-03-19T16:36:09;1.43;;;1.30;;
19257;SDS011;9763;48.780;9.212;2023-03-19T16:39:35;1.50;;;1.10;;
19257;SDS011;9763;48.780;9.212;2023-03-19T16:43:15;1.60;;;1.10;;
19257;SDS011;9763;48.780;9.212;2023-03-19T16:46:41;1.60;;;1.10;;
19257;SDS011;9763;48.780;9.212;2023-03-19T16:50:07;1.50;;;1.00;;
19257;SDS011;9763;48.780;9.212;2023-03-19T16:53:31;1.57;;;1.00;;
19257;SDS011;9763;48.780;9.212;2023-03-19T16:56:55;3.47;;;2.03;;
19257;SDS011;9763;48.780;9.212;2023-03-19T17:00:20;2.80;;;2.00;;
19257;SDS011;9763;48.780;9.212;2023-03-19T17:03:45;2.63;;;1.80;;
19257;SDS011;9763;48.780;9.212;2023-03-19T17:07:11;1.87;;;1.40;;
19257;SDS011;9763;48.780;9.212;2023-03-19T17:10:35;1.40;;;1.00;;
19257;SDS011;9763;48.780;9.212;2023-03-19T17:14:04;1.60;;;1.00;;
19257;SDS011;9763;48.780;9.212;2023-03-19T17:17:34;1.50;;;1.10;;
19257;SDS011;9763;48.780;9.212;2023-03-19T17:20:59;1.20;;;0.90;;
19257;SDS011;9763;48.780;9.212;2023-03-19T17:24:30;1.40;;;1.10;;
19257;SDS011;9763;48.780;9.212;2023-03-19T17:27:55;1.77;;;1.10;;
19257;SDS011;9763;48.780;9.212;2023-03-19T17:31:20;1.20;;;1.00;;
19257;SDS011;9763;48.780;9.212;2023-03-19T17:34:50;1.43;;;1.13;;
19257;SDS011;9763;48.780;9.212;2023-03-19T17:38:14;1.50;;;1.10;;
19257;SDS011;9763;48.780;9.212;2023-03-19T17:41:42;3.00;;;1.57;;
19257;SDS011;9763;48.780;9.212;2023-03-19T17:45:07;1.70;;;1.40;;
19257;SDS011;9763;48.780;9.212;2023-03-19T17:48:36;2.67;;;1.20;;
19257;SDS011;9763;48.780;9.212;2023-03-19T17:52:00;1.80;;;1.23;;
19257;SDS011;9763;48.780;9.212;2023-03-19T17:55:25;1.70;;;1.30;;
19257;SDS011;9763;48.780;9.212;2023-03-19T17:58:51;1.60;;;1.20;;
19257;SDS011;9763;48.780;9.212;2023-03-19T18:02:21;1.63;;;1.03;;
19257;SDS011;9763;48.780;9.212;2023-03-19T18:05:46;1.63;;;1.23;;
19257;SDS011;9763;48.780;9.212;2023-03-19T18:09:15;1.57;;;1.00;;
19257;SDS011;9763;48.780;9.212;2023-03-19T18:12:42;1.30;;;0.93;;
19257;SDS011;9763;48.780;9.212;2023-03-19T18:16:10;1.50;;;1.00;;
19257;SDS011;9763;48.780;9.212;2023-03-19T18:19:43;1.37;;;0.90;;
19257;SDS011;9763;48.780;9.212;2023-03-19T18:23:09;1.50;;;1.00;;
19257;SDS011;9763;48.780;9.212;2023-03-19T18:26:34;1.40;;;0.90;;
19257;SDS011;9763;48.780;9.212;2023-03-19T18:29:58;1.50;;;0.90;;
19257;SDS011;9763;48.780;9.212;2023-03-19T18:33:24;1.50;;;0.93;;
19257;SDS011;9763;48.780;9.212;2023-03-19T18:36:51;1.10;;;0.70;;
19257;SDS011;9763;48.780;9.212;2023-03-19T18:40:16;1.30;;;0.90;;
19257;SDS011;9763;48.780;9.212;2023-03-19T18:43:41;1.27;;;0.97;;
19257;SDS011;9763;48.780;9.212;2023-03-19T18:47:05;1.20;;;0.90;;
19257;SDS011;9763;48.780;9.212;2023-03-19T18:50:34;1.30;;;0.87;;
19257;SDS011;9763;48.780;9.212;2023-03-19T18:53:58;1.20;;;0.83;;
19257;SDS011;9763;48.780;9.212;2023-03-19T18:57:22;1.40;;;0.80;;
19257;SDS011;9763;48.780;9.212;2023-03-19T19:00:46;1.23;;;0.80;;
19257;SDS011;9763;48.780;9.212;2023-03-19T19:04:12;1.20;;;0.90;;
19257;SDS011;9763;48.780;9.212;2023-03-19T19:07:39;1.30;;;1.00;;
19257;SDS011;9763;48.780;9.212;2023-03-19T19:11:03;1.47;;;1.07;;
19257;SDS011;9763;48.780;9.212;2023-03-19T19:14:28;1.70;;;1.10;;
19257;SDS011;9763;48.780;9.212;2023-03-19T19:17:52;1.30;;;0.90;;
19257;SDS011;9763;48.780;9.212;2023-03-19T19:21:16;1.20;;;0.83;;
19257;SDS011;9763;48.780;9.212;2023-03-19T19:24:42;1.37;;;0.90;;
19257;SDS011;9763;48.780;9.212;2023-03-19T19:28:08;1.30;;;0.80;;
19257;SDS011;9763;48.780;9.212;2023-03-19T19:31:38;1.20;;;0.70;;
19257;SDS011;9763;48.780;9.212;2023-03-19T19:35:03;1.20;;;0.80;;
19257;SDS011;9763;48.780;9.212;2023-03-19T19:38:28;1.20;;;0.70;;
19257;SDS011;9763;48.780;9.212;2023-03-19T19:41:53;1.47;;;0.90;;
19257;SDS011;9763;48.780;9.212;2023-03-19T19:45:21;1.40;;;0.80;;
19257;SDS011;9763;48.780;9.212;2023-03-19T19:48:49;1.60;;;1.00;;
19257;SDS011;9763;48.780;9.212;2023-03-19T19:52:13;2.70;;;1.23;;
19257;SDS011;9763;48.780;9.212;2023-03-19T19:55:40;1.93;;;1.20;;
19257;SDS011;9763;48.780;9.212;2023-03-19T19:59:05;1.30;;;0.93;;
19257;SDS011;9763;48.780;9.212;2023-03-19T20:02:34;1.20;;;0.63;;
19257;SDS011;9763;48.780;9.212;2023-03-19T20:05:59;3.70;;;1.20;;
19257;SDS011;9763;48.780;9.212;2023-03-19T20:09:23;1.17;;;0.83;;
19257;SDS011;9763;48.780;9.212;2023-03-19T20:12:49;1.67;;;0.90;;
19257;SDS011;9763;48.780;9.212;2023-03-19T20:16:17;1.20;;;0.70;;
19257;SDS011;9763;48.780;9.212;2023-03-19T20:19:42;1.20;;;0.70;;
19257;SDS011;9763;48.780;9.212;2023-03-19T20:23:06;1.20;;;0.73;;
19257;SDS011;9763;48.780;9.212;2023-03-19T20:26:30;1.40;;;0.80;;
19257;SDS011;9763;48.780;9.212;2023-03-19T20:29:55;1.47;;;0.80;;
19257;SDS011;9763;48.780;9.212;2023-03-19T20:33:20;1.20;;;0.80;;
19257;SDS011;9763;48.780;9.212;2023-03-19T20:36:44;1.30;;;0.90;;
19257;SDS011;9763;48.780;9.212;2023-03-19T20:40:09;1.37;;;0.97;;
19257;SDS011;9763;48.780;9.212;2023-03-19T20:43:34;1.80;;;1.00;;
19257;SDS011;9763;48.780;9.212;2023-03-19T20:46:58;1.30;;;0.97;;
19257;SDS011;9763;48.780;9.212;2023-03-19T20:50:24;1.53;;;0.83;;
19257;SDS011;9763;48.780;9.212;2023-03-19T20:53:49;1.40;;;1.00;;
19257;SDS011;9763;48.780;9.212;2023-03-19T20:57:14;1.30;;;1.07;;
19257;SDS011;9763;48.780;9.212;2023-03-19T21:00:39;2.03;;;1.30;;
19257;SDS011;9763;48.780;9.212;2023-03-19T21:04:03;1.40;;;1.07;;
19257;SDS011;9763;48.780;9.212;2023-03-19T21:07:32;1.33;;;0.90;;
19257;SDS011;9763;48.780;9.212;2023-03-19T21:10:56;2.03;;;1.03;;
19257;SDS011;9763;48.780;9.212;2023-03-19T21:14:20;1.40;;;1.10;;
19257;SDS011;9763;48.780;9.212;2023-03-19T21:17:47;1.30;;;1.00;;